Time;durP1;ratioP1;P1;durP2;ratioP2;P2;SDS_P1;SDS_P2;PMS_P1;PMS_P2;Temp;Humidity;BMP_temperature;BMP_pressure;BME280_temperature;BME280_humidity;BME280_pressure;Samples;Min_cycle;Max_cycle;Signal;HPM_P1;HPM_P2
2022/06/20 00:01:22;;;;;;;7.47;3.22;;;13.90;99.90;;;;;;5052298;28;20114;-73
2022/06/20 00:03:50;;;;;;;9.10;2.97;;;13.80;99.90;;;;;;5052499;28;20567;-73
2022/06/20 00:06:20;;;;;;;9.07;2.70;;;13.80;99.90;;;;;;5051157;28;20496;-72
2022/06/20 00:08:49;;;;;;;;;;;13.80;99.90;;;;;;5052510;28;20095;-73
2022/06/20 00:11:19;;;;;;;9.60;3.47;;;13.90;99.90;;;;;;5052480;28;20019;-73
2022/06/20 00:13:50;;;;;;;8.77;2.65;;;13.80;99.90;;;;;;5053053;28;20052;-72
2022/06/20 00:16:19;;;;;;;10.00;2.67;;;13.80;99.90;;;;;;5051810;28;20053;-73
2022/06/20 00:18:47;;;;;;;8.32;2.75;;;13.90;99.90;;;;;;5050938;28;20056;-73
2022/06/20 00:21:16;;;;;;;5.72;2.40;;;13.90;99.90;;;;;;5051640;28;20099;-73
2022/06/20 00:23:43;;;;;;;9.20;2.58;;;13.80;99.90;;;;;;5051702;28;20045;-71
2022/06/20 00:26:10;;;;;;;4.32;2.28;;;13.80;99.90;;;;;;5052301;28;20056;-71
2022/06/20 00:28:37;;;;;;;7.05;2.40;;;13.80;99.90;;;;;;5051871;28;20501;-73
2022/06/20 00:31:06;;;;;;;5.38;2.75;;;13.80;99.90;;;;;;5050722;28;20053;-73
2022/06/20 00:33:34;;;;;;;9.43;2.65;;;13.80;99.90;;;;;;5051414;28;20060;-72
2022/06/20 00:36:02;;;;;;;7.93;2.35;;;13.70;99.90;;;;;;5051845;28;20108;-73
2022/06/20 00:38:29;;;;;;;5.95;2.53;;;13.70;99.90;;;;;;5051960;28;20049;-72
2022/06/20 00:40:59;;;;;;;5.88;2.15;;;13.70;99.90;;;;;;5038253;28;20114;-72
2022/06/20 00:43:32;;;;;;;5.60;1.88;;;13.70;99.90;;;;;;5053772;28;20456;-72
2022/06/20 00:46:04;;;;;;;7.40;2.28;;;13.70;99.90;;;;;;5043855;28;20049;-73
2022/06/20 00:48:38;;;;;;;6.13;2.10;;;13.70;99.90;;;;;;5055885;28;20053;-73
2022/06/20 00:51:14;;;;;;;5.60;2.10;;;13.70;99.90;;;;;;5059824;28;20106;-72
2022/06/20 00:53:45;;;;;;;10.48;3.00;;;13.70;99.90;;;;;;5063346;28;20080;-72
2022/06/20 00:56:19;;;;;;;5.65;2.08;;;13.60;99.90;;;;;;5060948;28;20060;-73
2022/06/20 00:58:51;;;;;;;6.68;2.15;;;13.60;99.90;;;;;;5054505;28;20049;-72
2022/06/20 01:01:26;;;;;;;6.70;2.45;;;13.60;99.90;;;;;;5055857;28;20053;-72
2022/06/20 01:03:59;;;;;;;6.97;2.30;;;13.50;99.90;;;;;;5053954;28;20569;-71
2022/06/20 01:06:29;;;;;;;6.78;2.40;;;13.50;99.90;;;;;;5054295;28;20053;-72
2022/06/20 01:09:02;;;;;;;7.10;2.72;;;13.40;99.90;;;;;;5051588;28;20042;-73
2022/06/20 01:11:41;;;;;;;6.22;1.88;;;13.30;99.90;;;;;;5034021;28;20053;-73
2022/06/20 01:14:23;;;;;;;6.18;1.85;;;13.20;99.90;;;;;;5035269;28;20057;-73
2022/06/20 01:16:53;;;;;;;8.68;2.33;;;13.20;99.90;;;;;;5033946;28;20045;-73
2022/06/20 01:19:45;;;;;;;8.10;2.58;;;13.10;99.90;;;;;;5034453;28;20053;-72
2022/06/20 01:22:27;;;;;;;9.77;2.80;;;13.00;99.90;;;;;;5034109;28;20054;-73
2022/06/20 01:25:07;;;;;;;7.80;2.33;;;12.90;99.90;;;;;;5033519;28;20057;-73
2022/06/20 01:27:39;;;;;;;9.45;2.28;;;12.80;99.90;;;;;;5033875;28;20057;-73
2022/06/20 01:30:08;;;;;;;7.90;2.50;;;12.80;99.90;;;;;;5034048;28;20053;-72
2022/06/20 01:32:35;;;;;;;6.88;2.67;;;12.70;99.90;;;;;;5034671;28;20057;-72
2022/06/20 01:35:05;;;;;;;4.35;2.00;;;12.70;99.90;;;;;;5034925;28;20464;-72
2022/06/20 01:37:37;;;;;;;4.53;2.00;;;12.50;99.90;;;;;;5033804;28;20096;-72
2022/06/20 01:40:09;;;;;;;6.40;1.70;;;12.50;99.90;;;;;;5052621;28;20049;-72
2022/06/20 01:42:38;;;;;;;6.05;2.40;;;12.50;99.90;;;;;;5053311;28;20053;-72
2022/06/20 01:45:57;;;;;;;8.85;2.60;;;12.40;99.90;;;;;;5053358;28;20064;-73
2022/06/20 01:48:02;;;;;;;8.70;3.08;;;12.30;99.90;;;;;;5052478;28;20049;-71
2022/06/20 01:50:28;;;;;;;8.18;2.65;;;12.30;99.90;;;;;;5052673;28;20057;-72
2022/06/20 01:52:55;;;;;;;16.98;3.55;;;12.30;99.90;;;;;;5052762;28;20056;-72
2022/06/20 01:55:24;;;;;;;6.38;2.30;;;12.20;99.90;;;;;;5036285;28;20053;-72
2022/06/20 01:58:00;;;;;;;10.18;2.40;;;12.20;99.90;;;;;;5033134;28;20489;-72
2022/06/20 02:00:27;;;;;;;7.60;2.97;;;12.20;99.90;;;;;;5033888;28;20057;-73
2022/06/20 02:02:57;;;;;;;8.00;2.50;;;12.20;99.90;;;;;;5033148;28;20061;-72
2022/06/20 02:05:28;;;;;;;5.65;2.42;;;12.20;99.90;;;;;;5033610;28;20497;-72
2022/06/20 02:07:58;;;;;;;4.90;2.65;;;12.20;99.90;;;;;;5033705;28;20049;-72
2022/06/20 02:10:31;;;;;;;10.18;2.75;;;12.30;99.90;;;;;;5048182;28;20451;-73
2022/06/20 02:13:02;;;;;;;8.60;2.47;;;12.40;99.90;;;;;;5054266;28;20049;-72
2022/06/20 02:15:31;;;;;;;6.75;2.30;;;12.40;99.90;;;;;;5052228;28;20053;-72
2022/06/20 02:18:00;;;;;;;5.05;2.00;;;12.50;99.90;;;;;;5052836;28;20448;-73
2022/06/20 02:20:32;;;;;;;6.10;2.30;;;12.50;99.90;;;;;;5054361;28;20049;-71
2022/06/20 02:23:00;;;;;;;6.55;2.58;;;12.50;99.90;;;;;;5053172;28;20509;-71
2022/06/20 02:25:32;;;;;;;3.55;1.65;;;12.60;99.90;;;;;;5034808;28;20168;-72
2022/06/20 02:28:06;;;;;;;4.60;2.08;;;12.60;99.90;;;;;;5032453;28;20053;-72
2022/06/20 02:30:33;;;;;;;6.32;2.05;;;12.70;99.90;;;;;;5033399;28;20413;-72
2022/06/20 02:33:08;;;;;;;5.28;2.17;;;12.70;99.90;;;;;;5032616;28;20055;-72
2022/06/20 02:35:36;;;;;;;7.55;2.70;;;12.70;99.90;;;;;;5033421;28;20358;-72
2022/06/20 02:38:03;;;;;;;3.97;2.10;;;12.70;99.90;;;;;;5037833;28;20041;-72
2022/06/20 02:40:31;;;;;;;7.03;2.13;;;12.60;99.90;;;;;;5052135;28;20501;-72
2022/06/20 02:43:05;;;;;;;9.60;2.33;;;12.50;99.90;;;;;;5054173;28;20106;-72
2022/06/20 02:45:34;;;;;;;6.78;2.50;;;12.50;99.90;;;;;;5055122;28;20044;-72
2022/06/20 02:48:07;;;;;;;6.00;2.28;;;12.40;99.90;;;;;;5055287;28;20060;-72
2022/06/20 02:50:37;;;;;;;7.20;2.72;;;12.30;99.90;;;;;;5054979;28;20052;-72
2022/06/20 02:53:07;;;;;;;5.38;2.30;;;12.20;99.90;;;;;;5055579;28;20565;-73
2022/06/20 02:55:36;;;;;;;4.47;2.28;;;12.10;99.90;;;;;;5073868;28;20059;-71
2022/06/20 02:58:12;;;;;;;6.07;2.13;;;12.10;99.90;;;;;;5054485;28;20044;-72
2022/06/20 03:00:45;;;;;;;6.85;2.33;;;12.00;99.90;;;;;;5073193;28;20109;-72
2022/06/20 03:03:18;;;;;;;9.70;2.20;;;11.90;99.90;;;;;;5055860;28;20450;-72
2022/06/20 03:05:45;;;;;;;8.65;2.67;;;11.80;99.90;;;;;;5055352;28;20052;-72
2022/06/20 03:08:15;;;;;;;6.97;2.70;;;11.80;99.90;;;;;;5073194;28;20091;-71
2022/06/20 03:10:45;;;;;;;5.85;2.47;;;11.70;99.90;;;;;;5055553;28;20055;-71
2022/06/20 03:13:14;;;;;;;7.07;2.40;;;11.70;99.90;;;;;;5052898;28;20048;-72
2022/06/20 03:15:44;;;;;;;10.65;2.60;;;11.60;99.90;;;;;;5053386;28;20061;-72
2022/06/20 03:18:14;;;;;;;6.35;2.53;;;11.50;99.90;;;;;;5034630;28;20045;-70
2022/06/20 03:20:41;;;;;;;7.63;2.60;;;11.40;99.90;;;;;;5037030;28;20098;-71
2022/06/20 03:23:15;;;;;;;5.35;2.70;;;11.40;99.90;;;;;;5054635;28;20056;-72
2022/06/20 03:25:42;;;;;;;6.40;2.55;;;11.40;99.90;;;;;;5035217;28;20079;-71
2022/06/20 03:28:13;;;;;;;9.10;2.92;;;11.30;99.90;;;;;;5053098;28;20119;-71
2022/06/20 03:30:40;;;;;;;;;;;11.30;99.90;;;;;;5053417;28;20056;-71
2022/06/20 03:33:13;;;;;;;6.55;3.08;;;11.30;99.90;;;;;;5052135;28;19920;-72
2022/06/20 03:35:44;;;;;;;6.70;2.95;;;11.20;99.90;;;;;;5053031;28;20103;-72
2022/06/20 03:38:14;;;;;;;6.75;2.88;;;11.20;99.90;;;;;;5042818;28;20051;-73
2022/06/20 03:40:43;;;;;;;8.23;2.85;;;11.20;99.90;;;;;;5054199;28;20447;-71
2022/06/20 03:43:14;;;;;;;9.00;3.00;;;11.20;99.90;;;;;;5073105;28;20129;-72
2022/06/20 03:45:46;;;;;;;8.80;3.40;;;11.20;99.90;;;;;;5054429;28;20056;-72
2022/06/20 03:48:18;;;;;;;9.57;3.42;;;11.20;99.90;;;;;;5054842;28;20044;-71
2022/06/20 03:50:53;;;;;;;8.52;3.05;;;11.20;99.90;;;;;;5072813;28;20056;-72
2022/06/20 03:53:23;;;;;;;7.72;2.90;;;11.20;99.90;;;;;;5054838;28;20410;-73
2022/06/20 03:55:56;;;;;;;17.13;3.92;;;11.20;99.90;;;;;;5035001;28;20053;-72
2022/06/20 03:58:29;;;;;;;8.90;2.95;;;11.20;99.90;;;;;;5052638;28;20052;-72
2022/06/20 04:01:00;;;;;;;10.98;3.78;;;11.20;99.90;;;;;;5052024;28;20055;-72
2022/06/20 04:03:31;;;;;;;6.30;2.47;;;11.20;99.90;;;;;;5053096;28;20102;-72
2022/06/20 04:06:05;;;;;;;7.85;3.47;;;11.20;99.90;;;;;;5052672;28;20051;-72
2022/06/20 04:11:31;;;;;;;9.93;3.47;;;11.30;99.90;;;;;;5054876;28;20044;-72
2022/06/20 04:14:04;;;;;;;6.65;2.92;;;11.30;99.90;;;;;;5073039;28;20447;-71
2022/06/20 04:16:34;;;;;;;7.72;3.38;;;11.30;99.90;;;;;;5058492;28;20049;-71
2022/06/20 04:19:09;;;;;;;10.02;3.60;;;11.30;99.90;;;;;;5076141;28;20049;-71
2022/06/20 04:21:40;;;;;;;7.13;3.20;;;11.30;99.90;;;;;;5075853;28;20132;-71
2022/06/20 04:24:16;;;;;;;11.10;3.15;;;11.40;99.90;;;;;;5075904;28;20099;-71
2022/06/20 04:26:49;;;;;;;10.02;3.72;;;11.40;99.90;;;;;;5076299;28;20052;-71
2022/06/20 04:29:23;;;;;;;14.48;3.53;;;11.50;99.90;;;;;;5057711;28;20048;-72
2022/06/20 04:31:55;;;;;;;11.18;3.47;;;11.50;99.90;;;;;;5075923;28;20481;-72
2022/06/20 04:34:28;;;;;;;8.88;3.35;;;11.60;99.90;;;;;;5058312;28;20056;-72
2022/06/20 04:37:00;;;;;;;7.38;3.28;;;11.60;99.90;;;;;;5075137;28;20060;-71
2022/06/20 04:39:31;;;;;;;7.90;3.63;;;11.80;99.90;;;;;;5057809;28;20048;-72
2022/06/20 04:42:05;;;;;;;15.77;4.00;;;11.90;99.90;;;;;;5075721;28;20057;-72
2022/06/20 04:44:38;;;;;;;13.45;4.55;;;12.00;99.90;;;;;;5057706;28;20056;-72
2022/06/20 04:47:28;;;;;;;8.85;4.20;;;12.10;99.90;;;;;;5075745;28;20065;-70
2022/06/20 04:49:55;;;;;;;9.20;4.03;;;12.10;99.90;;;;;;5057362;28;20045;-71
2022/06/20 04:52:26;;;;;;;8.18;3.10;;;12.10;99.90;;;;;;5076183;28;20068;-71
2022/06/20 04:54:53;;;;;;;10.13;3.95;;;12.10;99.90;;;;;;5059627;28;20049;-71
2022/06/20 04:57:20;;;;;;;7.75;3.28;;;12.00;99.90;;;;;;5037365;28;20055;-71
2022/06/20 04:59:48;;;;;;;10.30;3.67;;;12.10;99.90;;;;;;5037908;28;20044;-71
2022/06/20 05:02:19;;;;;;;8.63;3.50;;;12.20;99.90;;;;;;5037691;28;20060;-71
2022/06/20 05:04:49;;;;;;;15.68;4.28;;;12.30;99.90;;;;;;5054680;28;20390;-72
2022/06/20 05:07:19;;;;;;;;;;;12.50;99.90;;;;;;5038143;28;20057;-73
2022/06/20 05:09:51;;;;;;;11.82;3.60;;;12.70;99.90;;;;;;5037394;28;19922;-72
2022/06/20 05:12:26;;;;;;;8.27;3.88;;;12.80;99.90;;;;;;5054840;28;20416;-73
2022/06/20 05:15:00;;;;;;;10.75;4.03;;;13.00;99.90;;;;;;5037601;28;20057;-73
2022/06/20 05:17:30;;;;;;;11.63;3.55;;;13.20;99.90;;;;;;5036998;28;20056;-71
2022/06/20 05:20:02;;;;;;;12.70;4.03;;;13.40;99.90;;;;;;5054843;28;20562;-73
2022/06/20 05:22:33;;;;;;;7.72;3.38;;;13.60;99.90;;;;;;5055339;28;20099;-73
2022/06/20 05:25:07;;;;;;;8.55;2.80;;;13.80;99.90;;;;;;5071091;28;20056;-72
2022/06/20 05:27:47;;;;;;;12.98;3.47;;;14.00;99.90;;;;;;5075196;28;20056;-72
2022/06/20 05:30:21;;;;;;;10.53;4.40;;;14.20;99.90;;;;;;5057498;28;20052;-71
2022/06/20 05:32:55;;;;;;;10.55;3.80;;;14.40;99.90;;;;;;5056819;28;20111;-72
2022/06/20 05:35:27;;;;;;;10.50;3.92;;;14.50;99.90;;;;;;5063528;28;20111;-73
2022/06/20 05:37:59;;;;;;;10.32;3.95;;;14.70;99.90;;;;;;5055759;28;20049;-74
2022/06/20 05:40:32;;;;;;;12.48;3.92;;;14.90;99.90;;;;;;5036844;28;20110;-73
2022/06/20 05:43:00;;;;;;;10.63;3.92;;;15.10;99.90;;;;;;5056397;28;20111;-73
2022/06/20 05:45:31;;;;;;;12.15;4.20;;;15.20;99.90;;;;;;5055026;28;20044;-73
2022/06/20 05:48:01;;;;;;;9.85;3.65;;;15.30;99.90;;;;;;5038166;28;20064;-74
2022/06/20 05:50:38;;;;;;;9.85;3.63;;;15.60;99.90;;;;;;5076899;28;20048;-74
2022/06/20 05:53:10;;;;;;;5.75;3.20;;;15.80;99.90;;;;;;5065673;28;20079;-74
2022/06/20 05:55:43;;;;;;;12.55;3.35;;;16.00;99.90;;;;;;5052856;28;20118;-74
2022/06/20 05:58:17;;;;;;;8.70;3.38;;;16.10;99.90;;;;;;5053268;28;20055;-74
2022/06/20 06:00:46;;;;;;;14.80;4.65;;;16.30;99.90;;;;;;5068610;28;20060;-75
2022/06/20 06:03:17;;;;;;;11.40;4.03;;;16.60;99.90;;;;;;5057685;28;20044;-74
2022/06/20 06:05:48;;;;;;;8.35;3.85;;;16.80;99.90;;;;;;5053294;28;20106;-74
2022/06/20 06:08:23;;;;;;;13.93;3.63;;;17.00;99.90;;;;;;5070502;28;20052;-73
2022/06/20 06:10:57;;;;;;;8.07;3.58;;;17.20;99.90;;;;;;5055151;28;20094;-74
2022/06/20 06:13:33;;;;;;;9.25;3.03;;;17.30;99.90;;;;;;5054770;28;20052;-75
2022/06/20 06:18:59;;;;;;;8.43;2.97;;;17.70;99.90;;;;;;5069961;28;20152;-72
2022/06/20 06:21:28;;;;;;;11.88;4.05;;;17.80;99.90;;;;;;5053932;28;20044;-74
2022/06/20 06:23:56;;;;;;;9.23;3.45;;;18.00;99.90;;;;;;5055044;28;20125;-75
2022/06/20 06:26:23;;;;;;;9.07;2.88;;;18.10;99.90;;;;;;5054745;28;20078;-75
2022/06/20 06:28:52;;;;;;;9.93;3.28;;;18.10;99.90;;;;;;5071949;28;20549;-73
2022/06/20 06:31:24;;;;;;;13.57;3.38;;;18.00;99.90;;;;;;5053820;28;20090;-73
2022/06/20 06:33:56;;;;;;;11.73;3.47;;;17.80;99.90;;;;;;5071771;28;20062;-74
2022/06/20 06:36:30;;;;;;;9.80;2.72;;;17.60;99.90;;;;;;5070552;28;20051;-74
2022/06/20 06:39:03;;;;;;;7.32;3.33;;;17.50;99.90;;;;;;5053742;28;20059;-73
2022/06/20 06:41:34;;;;;;;7.70;3.38;;;17.40;99.90;;;;;;5053610;28;20044;-72
2022/06/20 06:44:02;;;;;;;;;;;17.20;99.90;;;;;;5051554;28;20056;-73
2022/06/20 06:46:35;;;;;;;10.52;2.90;;;17.20;99.90;;;;;;5053431;28;19934;-73
2022/06/20 06:49:24;;;;;;;9.82;2.70;;;17.20;99.90;;;;;;5049968;28;20041;-74
2022/06/20 06:51:55;;;;;;;9.00;2.65;;;17.10;99.90;;;;;;5071454;28;20048;-74
2022/06/20 06:54:27;;;;;;;11.25;3.80;;;17.30;99.90;;;;;;5071058;28;20049;-74
2022/06/20 06:56:59;;;;;;;8.45;2.90;;;17.80;99.90;;;;;;5052707;28;20048;-75
2022/06/20 06:59:31;;;;;;;7.78;2.78;;;18.60;99.90;;;;;;5053421;28;20094;-76
2022/06/20 07:02:03;;;;;;;6.45;2.60;;;19.10;99.90;;;;;;5071862;28;20051;-76
2022/06/20 07:04:36;;;;;;;6.93;2.55;;;19.40;99.90;;;;;;5070305;28;20044;-75
2022/06/20 07:07:13;;;;;;;10.25;2.95;;;19.30;99.90;;;;;;5069632;28;20094;-76
2022/06/20 07:10:04;;;;;;;5.63;2.42;;;19.20;99.90;;;;;;5052619;28;20040;-76
2022/06/20 07:12:36;;;;;;;8.10;2.40;;;19.30;99.90;;;;;;5054004;28;20052;-73
2022/06/20 07:15:08;;;;;;;8.30;2.20;;;19.80;99.90;;;;;;5071147;28;20459;-74
2022/06/20 07:17:41;;;;;;;5.47;1.92;;;20.40;99.90;;;;;;5053366;28;20060;-75
2022/06/20 07:20:10;;;;;;;6.45;1.80;;;20.30;99.90;;;;;;5071330;28;20052;-75
2022/06/20 07:22:40;;;;;;;6.75;2.33;;;20.10;99.90;;;;;;5069617;28;20076;-73
2022/06/20 07:25:08;;;;;;;7.93;2.03;;;19.90;99.90;;;;;;5070486;28;20052;-71
2022/06/20 07:27:39;;;;;;;6.97;2.15;;;19.80;99.90;;;;;;5072076;28;20052;-72
2022/06/20 07:30:12;;;;;;;10.93;2.45;;;20.50;99.90;;;;;;5053644;28;20314;-71
2022/06/20 07:32:43;;;;;;;5.35;1.73;;;21.30;99.90;;;;;;5071064;28;20045;-74
2022/06/20 07:35:16;;;;;;;7.43;1.95;;;21.50;99.90;;;;;;5071996;28;20045;-74
2022/06/20 07:37:48;;;;;;;4.88;1.70;;;21.50;99.50;;;;;;5053078;28;20052;-73
2022/06/20 07:40:21;;;;;;;9.70;2.30;;;21.40;98.40;;;;;;5069257;28;20048;-73
2022/06/20 07:42:54;;;;;;;5.80;1.90;;;21.20;97.50;;;;;;5065669;28;20087;-73
2022/06/20 07:45:25;;;;;;;6.32;2.17;;;20.90;98.60;;;;;;5065507;28;20056;-72
2022/06/20 07:47:55;;;;;;;4.68;1.50;;;21.30;98.20;;;;;;5049145;28;20557;-73
2022/06/20 07:50:25;;;;;;;;;;;22.00;97.20;;;;;;5075815;28;20492;-73
2022/06/20 07:52:56;;;;;;;7.38;2.50;;;22.50;96.10;;;;;;5054592;28;19967;-72
2022/06/20 07:55:27;;;;;;;5.82;1.75;;;23.00;95.80;;;;;;5053963;28;20075;-73
2022/06/20 07:57:59;;;;;;;5.78;1.52;;;23.50;95.30;;;;;;5065093;28;20056;-73
2022/06/20 08:00:31;;;;;;;3.70;1.63;;;23.70;94.20;;;;;;5074502;28;20098;-73
2022/06/20 08:03:07;;;;;;;5.53;1.40;;;23.20;93.30;;;;;;5058039;28;20101;-73
2022/06/20 08:05:39;;;;;;;4.35;1.42;;;23.00;92.30;;;;;;5057078;28;20048;-73
2022/06/20 08:08:14;;;;;;;5.30;1.55;;;23.30;92.60;;;;;;5073969;28;20091;-73
2022/06/20 08:10:46;;;;;;;5.65;1.40;;;23.20;91.50;;;;;;5040770;28;20053;-74
2022/06/20 08:13:19;;;;;;;4.22;1.67;;;22.80;91.10;;;;;;5053996;28;20051;-72
2022/06/20 08:15:53;;;;;;;2.38;1.20;;;22.80;91.30;;;;;;5058707;28;20052;-73
2022/06/20 08:18:21;;;;;;;6.78;1.60;;;23.50;91.00;;;;;;5062147;28;20057;-73
2022/06/20 08:20:54;;;;;;;5.60;2.17;;;23.90;90.20;;;;;;5076651;28;20045;-72
2022/06/20 08:23:24;;;;;;;4.95;1.60;;;23.70;89.90;;;;;;5075066;28;20457;-73
2022/06/20 08:25:55;;;;;;;5.20;1.35;;;23.80;90.20;;;;;;5054252;28;20053;-73
2022/06/20 08:28:27;;;;;;;4.55;1.63;;;24.20;85.70;;;;;;5055055;28;20094;-72
2022/06/20 08:30:59;;;;;;;5.82;1.38;;;24.00;87.20;;;;;;5053340;28;20056;-73
2022/06/20 08:33:32;;;;;;;3.70;1.48;;;24.20;86.70;;;;;;5056696;28;20117;-73
2022/06/20 08:36:06;;;;;;;3.55;1.70;;;24.70;85.90;;;;;;5073757;28;20048;-73
2022/06/20 08:38:39;;;;;;;5.32;1.52;;;24.40;86.20;;;;;;5074108;28;20488;-73
2022/06/20 08:41:33;;;;;;;5.68;1.40;;;24.10;86.30;;;;;;5074352;28;20049;-73
2022/06/20 08:44:40;;;;;;;3.83;1.17;;;24.10;85.30;;;;;;5072641;28;20053;-73
2022/06/20 08:47:39;;;;;;;4.40;1.25;;;23.90;85.20;;;;;;5071879;28;20469;-73
2022/06/20 08:50:31;;;;;;;8.05;1.92;;;23.60;85.50;;;;;;5027753;28;20048;-73
2022/06/20 08:53:43;;;;;;;7.30;1.80;;;23.60;85.00;;;;;;5073118;28;20071;-73
2022/06/20 08:56:27;;;;;;;6.60;1.92;;;23.50;85.50;;;;;;5001837;28;20048;-72
2022/06/20 08:59:08;;;;;;;4.60;1.77;;;23.10;87.80;;;;;;5069341;28;20052;-73
2022/06/20 09:01:43;;;;;;;9.70;1.77;;;23.20;87.00;;;;;;5053507;28;20044;-72
2022/06/20 09:04:36;;;;;;;6.18;1.85;;;23.80;87.00;;;;;;5068824;28;20091;-73
2022/06/20 09:07:22;;;;;;;6.30;1.63;;;23.90;83.90;;;;;;5050881;28;20049;-73
2022/06/20 09:10:04;;;;;;;3.85;1.42;;;23.70;83.60;;;;;;5070811;28;20102;-74
2022/06/20 09:12:54;;;;;;;6.38;1.60;;;24.40;83.30;;;;;;5072379;28;20106;-73
2022/06/20 09:15:38;;;;;;;6.97;1.60;;;25.00;83.20;;;;;;5053083;28;20049;-73
2022/06/20 09:18:13;;;;;;;3.15;1.15;;;25.60;78.40;;;;;;5053028;28;20060;-73
2022/06/20 09:20:45;;;;;;;5.75;1.80;;;26.30;79.20;;;;;;5071539;28;20450;-73
2022/06/20 09:23:32;;;;;;;4.95;1.45;;;26.70;76.30;;;;;;5072582;28;20060;-73
2022/06/20 09:26:06;;;;;;;5.13;1.45;;;27.40;76.60;;;;;;5071869;28;20048;-74
2022/06/20 09:28:52;;;;;;;5.75;1.88;;;27.40;76.80;;;;;;5054941;28;20076;-74
2022/06/20 09:31:39;;;;;;;12.27;2.08;;;27.30;75.00;;;;;;5044950;28;20548;-72
2022/06/20 09:34:43;;;;;;;4.97;1.40;;;27.20;74.00;;;;;;5049490;28;20477;-73
2022/06/20 09:37:33;;;;;;;9.52;1.90;;;27.30;73.40;;;;;;5051092;28;20048;-72
2022/06/20 09:40:16;;;;;;;6.38;1.60;;;27.10;74.20;;;;;;5048737;28;20045;-73
2022/06/20 09:45:39;;;;;;;3.13;1.38;;;25.60;76.10;;;;;;5010291;28;20145;-73
2022/06/20 09:48:13;;;;;;;4.90;1.58;;;25.00;76.50;;;;;;5011956;28;20049;-72
2022/06/20 09:50:55;;;;;;;4.45;1.35;;;24.60;77.30;;;;;;5017943;28;20046;-73
2022/06/20 09:53:39;;;;;;;3.35;1.20;;;25.10;77.60;;;;;;5042128;28;20054;-73
2022/06/20 09:56:13;;;;;;;3.03;1.20;;;25.70;76.10;;;;;;5008114;28;20503;-73
2022/06/20 09:58:51;;;;;;;4.60;1.27;;;26.10;74.90;;;;;;5021948;28;20049;-73
2022/06/20 10:01:29;;;;;;;4.90;1.17;;;26.30;74.20;;;;;;5005842;28;20062;-73
2022/06/20 10:04:02;;;;;;;5.72;1.02;;;26.40;73.10;;;;;;5005465;28;20436;-74
2022/06/20 10:06:46;;;;;;;9.63;1.65;;;26.80;73.00;;;;;;5005664;28;20087;-73
2022/06/20 10:09:20;;;;;;;8.02;1.63;;;26.80;72.30;;;;;;5013174;28;20085;-74
2022/06/20 10:11:59;;;;;;;4.00;1.20;;;27.30;71.70;;;;;;5006139;28;20070;-74
2022/06/20 10:14:35;;;;;;;8.25;1.38;;;27.40;71.50;;;;;;5008871;28;20050;-74
2022/06/20 10:17:12;;;;;;;9.60;1.90;;;26.80;70.40;;;;;;5010401;28;20046;-73
2022/06/20 10:19:46;;;;;;;4.88;1.27;;;26.90;72.40;;;;;;5015202;28;20110;-74
2022/06/20 10:22:20;;;;;;;3.38;1.35;;;27.20;72.20;;;;;;5011200;28;20054;-73
2022/06/20 10:25:25;;;;;;;6.53;1.50;;;27.40;70.40;;;;;;5005920;28;20550;-74
2022/06/20 10:27:58;;;;;;;5.00;1.52;;;27.50;69.60;;;;;;5006152;28;20421;-74
2022/06/20 10:30:41;;;;;;;4.53;1.45;;;27.80;70.50;;;;;;5013474;28;20054;-74
2022/06/20 10:33:28;;;;;;;4.90;1.35;;;27.40;68.80;;;;;;5037511;28;20079;-74
2022/06/20 10:36:07;;;;;;;4.47;1.70;;;27.70;68.60;;;;;;5008727;28;20111;-74
2022/06/20 10:38:40;;;;;;;4.90;1.67;;;27.90;69.90;;;;;;5010121;28;20054;-73
2022/06/20 10:41:10;;;;;;;3.05;1.40;;;27.60;68.30;;;;;;5011229;28;20062;-75
2022/06/20 10:43:43;;;;;;;;;;;27.80;68.40;;;;;;5012594;28;20065;-74
2022/06/20 10:46:14;;;;;;;4.43;1.30;;;27.80;68.00;;;;;;5015276;28;19926;-73
2022/06/20 10:49:15;;;;;;;4.75;1.45;;;28.10;69.00;;;;;;5002231;28;20490;-74
2022/06/20 10:51:54;;;;;;;2.88;1.17;;;27.90;68.40;;;;;;5022373;28;20133;-75
2022/06/20 10:54:55;;;;;;;5.20;1.30;;;27.30;67.90;;;;;;5024559;28;20408;-74
2022/06/20 10:57:32;;;;;;;4.32;1.42;;;27.30;68.30;;;;;;5005034;28;20053;-73
2022/06/20 11:00:07;;;;;;;4.18;1.30;;;27.40;68.40;;;;;;5011098;28;20064;-73
2022/06/20 11:02:51;;;;;;;2.63;1.15;;;27.50;68.30;;;;;;5013293;28;20057;-73
2022/06/20 11:05:28;;;;;;;6.20;1.60;;;28.00;67.50;;;;;;5010493;28;20053;-74
2022/06/20 11:08:05;;;;;;;7.15;1.95;;;28.10;68.60;;;;;;5043731;28;20515;-74
2022/06/20 11:11:00;;;;;;;4.43;1.10;;;28.30;66.50;;;;;;5010021;28;20054;-73
2022/06/20 11:13:31;;;;;;;2.42;0.90;;;28.50;66.00;;;;;;5010843;28;20439;-72
2022/06/20 11:16:11;;;;;;;4.55;2.10;;;28.20;65.90;;;;;;5006658;28;20501;-73
2022/06/20 11:18:53;;;;;;;2.70;1.10;;;28.30;65.80;;;;;;5008204;28;20053;-71
2022/06/20 11:21:30;;;;;;;4.68;1.40;;;27.50;66.00;;;;;;5042016;28;20489;-73
2022/06/20 11:24:12;;;;;;;3.28;1.30;;;27.10;67.20;;;;;;5024996;28;20047;-72
2022/06/20 11:26:44;;;;;;;7.03;1.30;;;27.50;67.50;;;;;;5010779;28;20102;-73
2022/06/20 11:29:29;;;;;;;3.83;1.15;;;28.00;66.80;;;;;;5010160;28;20106;-72
2022/06/20 11:32:03;;;;;;;3.45;1.48;;;28.20;66.10;;;;;;5008878;28;20056;-73
2022/06/20 11:34:56;;;;;;;3.78;1.40;;;28.30;66.00;;;;;;5010891;28;20052;-73
2022/06/20 11:37:38;;;;;;;3.72;1.45;;;28.40;63.90;;;;;;5008070;28;20639;-73
2022/06/20 11:40:29;;;;;;;3.72;1.30;;;28.30;64.90;;;;;;4992026;28;20058;-70
2022/06/20 11:43:21;;;;;;;5.00;1.48;;;28.50;64.40;;;;;;4989431;28;20111;-71
2022/06/20 11:46:06;;;;;;;4.03;1.38;;;27.80;65.00;;;;;;4994480;28;20065;-72
2022/06/20 11:48:49;;;;;;;3.83;1.20;;;27.20;66.70;;;;;;4996400;28;20058;-72
2022/06/20 11:51:21;;;;;;;3.92;1.48;;;27.10;67.50;;;;;;4995378;28;20046;-72
2022/06/20 11:54:01;;;;;;;3.58;1.52;;;26.50;67.50;;;;;;5034997;28;20050;-72
2022/06/20 11:56:34;;;;;;;6.25;1.42;;;26.10;68.90;;;;;;5028240;28;20054;-71
2022/06/20 11:59:09;;;;;;;6.65;1.58;;;25.70;70.00;;;;;;4990562;28;20054;-72
2022/06/20 12:01:42;;;;;;;5.22;1.67;;;25.70;70.70;;;;;;5010875;28;20050;-71
2022/06/20 12:04:14;;;;;;;4.53;1.50;;;25.50;71.20;;;;;;5003411;28;20046;-72
2022/06/20 12:06:46;;;;;;;3.40;1.20;;;25.30;71.20;;;;;;5021630;28;20490;-71
2022/06/20 12:09:20;;;;;;;3.35;1.20;;;25.60;71.00;;;;;;4990379;28;20133;-72
2022/06/20 12:12:04;;;;;;;3.03;1.10;;;25.50;69.80;;;;;;5039296;28;20497;-71
2022/06/20 12:14:39;;;;;;;3.72;1.50;;;25.80;68.70;;;;;;5005673;28;20066;-71
2022/06/20 12:17:21;;;;;;;4.25;1.58;;;26.00;69.20;;;;;;5004565;28;20060;-72
2022/06/20 12:23:24;;;;;;;3.33;1.33;;;26.10;69.50;;;;;;5009685;28;20054;-72
2022/06/20 12:25:57;;;;;;;3.90;1.20;;;26.40;69.20;;;;;;5009859;28;20061;-72
2022/06/20 12:28:31;;;;;;;3.75;1.60;;;26.70;68.30;;;;;;5030265;28;20406;-72
2022/06/20 12:31:03;;;;;;;3.17;1.33;;;26.80;68.00;;;;;;4989608;28;20540;-72
2022/06/20 12:33:33;;;;;;;3.92;1.30;;;26.30;68.00;;;;;;5005286;28;20128;-72
2022/06/20 12:36:04;;;;;;;3.63;1.30;;;25.40;68.80;;;;;;5041876;28;20099;-71
2022/06/20 12:38:39;;;;;;;4.20;1.55;;;24.80;70.20;;;;;;5010688;28;20565;-72
2022/06/20 12:41:10;;;;;;;4.30;1.60;;;24.90;71.30;;;;;;4990853;28;20520;-72
2022/06/20 12:43:48;;;;;;;5.63;1.63;;;24.60;71.10;;;;;;5022157;28;20054;-73
2022/06/20 12:46:26;;;;;;;6.28;1.92;;;24.30;71.70;;;;;;5029807;28;20530;-71
2022/06/20 12:49:18;;;;;;;8.30;1.27;;;24.40;72.50;;;;;;5001419;28;20119;-72
2022/06/20 12:51:54;;;;;;;3.10;1.30;;;24.30;72.60;;;;;;4998184;28;20502;-71
2022/06/20 12:54:48;;;;;;;7.90;1.42;;;25.00;72.80;;;;;;4990553;28;20050;-71
2022/06/20 12:57:35;;;;;;;3.35;1.20;;;25.40;71.40;;;;;;5011166;28;20049;-71
2022/06/20 13:00:24;;;;;;;2.75;1.33;;;25.90;71.10;;;;;;5031646;28;20054;-72
2022/06/20 13:03:30;;;;;;;3.97;1.30;;;26.70;69.70;;;;;;4989444;28;20062;-71
2022/06/20 13:06:22;;;;;;;4.43;1.17;;;26.50;68.00;;;;;;4999488;28;20452;-70
2022/06/20 13:09:15;;;;;;;7.25;1.70;;;27.00;69.40;;;;;;4993597;28;20111;-71
2022/06/20 13:11:53;;;;;;;3.63;1.23;;;27.60;68.60;;;;;;5006429;28;20081;-72
2022/06/20 13:14:55;;;;;;;3.22;1.40;;;27.80;68.30;;;;;;5008504;28;20493;-72
2022/06/20 13:17:38;;;;;;;3.13;1.23;;;28.40;66.80;;;;;;4993462;28;20050;-72
2022/06/20 13:20:29;;;;;;;4.68;1.20;;;28.70;66.10;;;;;;4998648;28;20447;-71
2022/06/20 13:23:06;;;;;;;2.80;1.10;;;27.80;65.50;;;;;;4989927;28;20119;-73
2022/06/20 13:25:39;;;;;;;3.65;1.35;;;27.80;66.60;;;;;;4989979;28;20125;-71
2022/06/20 13:28:14;;;;;;;4.40;1.42;;;28.30;66.90;;;;;;5004742;28;20046;-71
2022/06/20 13:30:59;;;;;;;3.05;1.42;;;28.70;65.50;;;;;;5008512;28;20065;-71
2022/06/20 13:33:39;;;;;;;4.53;1.40;;;28.80;65.40;;;;;;5034305;28;20073;-72
2022/06/20 13:36:21;;;;;;;4.00;1.63;;;28.90;65.40;;;;;;5021175;28;20052;-72
2022/06/20 13:38:53;;;;;;;6.95;2.17;;;28.90;65.90;;;;;;4993643;28;20444;-71
2022/06/20 13:41:25;;;;;;;4.75;1.38;;;28.40;65.90;;;;;;5024012;28;20444;-72